sensor_id;sensor_type;location;lat;lon;timestamp;temperature;humidity
48515;DHT22;34309;47.260;2.796;2023-07-13T00:01:11;24.00;27.90
48515;DHT22;34309;47.260;2.796;2023-07-13T00:03:47;24.00;28.00
48515;DHT22;34309;47.260;2.796;2023-07-13T00:06:21;23.90;27.90
48515;DHT22;34309;47.260;2.796;2023-07-13T00:08:55;23.90;27.90
48515;DHT22;34309;47.260;2.796;2023-07-13T00:11:29;23.90;27.90
48515;DHT22;34309;47.260;2.796;2023-07-13T00:14:04;23.90;27.90
48515;DHT22;34309;47.260;2.796;2023-07-13T00:16:39;23.90;27.90
48515;DHT22;34309;47.260;2.796;2023-07-13T00:19:16;23.90;27.90
48515;DHT22;34309;47.260;2.796;2023-07-13T00:21:49;23.80;27.80
48515;DHT22;34309;47.260;2.796;2023-07-13T00:24:23;23.90;27.90
48515;DHT22;34309;47.260;2.796;2023-07-13T00:26:59;23.80;27.80
48515;DHT22;34309;47.260;2.796;2023-07-13T00:29:35;23.80;27.90
48515;DHT22;34309;47.260;2.796;2023-07-13T00:32:05;23.80;27.80
48515;DHT22;34309;47.260;2.796;2023-07-13T00:34:39;23.70;27.80
48515;DHT22;34309;47.260;2.796;2023-07-13T00:37:13;23.80;28.10
48515;DHT22;34309;47.260;2.796;2023-07-13T00:39:47;23.70;28.60
48515;DHT22;34309;47.260;2.796;2023-07-13T00:42:21;23.70;28.20
48515;DHT22;34309;47.260;2.796;2023-07-13T00:48:22;23.70;28.20
48515;DHT22;34309;47.260;2.796;2023-07-13T00:51:00;23.60;28.90
48515;DHT22;34309;47.260;2.796;2023-07-13T00:53:34;23.70;28.40
48515;DHT22;34309;47.260;2.796;2023-07-13T00:56:08;23.60;28.50
48515;DHT22;34309;47.260;2.796;2023-07-13T00:58:43;23.70;28.50
48515;DHT22;34309;47.260;2.796;2023-07-13T01:01:19;23.60;28.60
48515;DHT22;34309;47.260;2.796;2023-07-13T01:03:57;23.60;28.60
48515;DHT22;34309;47.260;2.796;2023-07-13T01:06:31;23.60;28.60
48515;DHT22;34309;47.260;2.796;2023-07-13T01:09:07;23.60;28.70
48515;DHT22;34309;47.260;2.796;2023-07-13T01:11:42;23.60;28.70
48515;DHT22;34309;47.260;2.796;2023-07-13T01:14:17;23.60;28.70
48515;DHT22;34309;47.260;2.796;2023-07-13T01:16:51;23.60;28.70
48515;DHT22;34309;47.260;2.796;2023-07-13T01:19:35;23.60;28.70
48515;DHT22;34309;47.260;2.796;2023-07-13T01:22:14;23.50;28.60
48515;DHT22;34309;47.260;2.796;2023-07-13T01:24:48;23.50;28.60
48515;DHT22;34309;47.260;2.796;2023-07-13T01:27:24;23.50;28.90
48515;DHT22;34309;47.260;2.796;2023-07-13T01:29:58;23.50;28.60
48515;DHT22;34309;47.260;2.796;2023-07-13T01:32:36;23.50;28.60
48515;DHT22;34309;47.260;2.796;2023-07-13T01:35:11;23.40;28.60
48515;DHT22;34309;47.260;2.796;2023-07-13T01:37:47;23.40;28.50
48515;DHT22;34309;47.260;2.796;2023-07-13T01:40:21;23.40;28.60
48515;DHT22;34309;47.260;2.796;2023-07-13T01:42:55;23.40;28.70
48515;DHT22;34309;47.260;2.796;2023-07-13T01:45:31;23.40;28.60
48515;DHT22;34309;47.260;2.796;2023-07-13T01:48:05;23.40;28.60
48515;DHT22;34309;47.260;2.796;2023-07-13T01:50:39;23.40;28.50
48515;DHT22;34309;47.260;2.796;2023-07-13T01:53:14;23.40;28.60
48515;DHT22;34309;47.260;2.796;2023-07-13T01:55:48;23.30;28.60
48515;DHT22;34309;47.260;2.796;2023-07-13T01:58:22;23.30;28.40
48515;DHT22;34309;47.260;2.796;2023-07-13T02:00:56;23.20;28.30
48515;DHT22;34309;47.260;2.796;2023-07-13T02:03:32;23.20;28.50
48515;DHT22;34309;47.260;2.796;2023-07-13T02:06:05;23.20;29.10
48515;DHT22;34309;47.260;2.796;2023-07-13T02:08:41;23.20;28.50
48515;DHT22;34309;47.260;2.796;2023-07-13T02:11:15;23.20;28.50
48515;DHT22;34309;47.260;2.796;2023-07-13T02:13:50;23.20;28.50
48515;DHT22;34309;47.260;2.796;2023-07-13T02:16:24;23.20;28.50
48515;DHT22;34309;47.260;2.796;2023-07-13T02:18:57;23.20;28.60
48515;DHT22;34309;47.260;2.796;2023-07-13T02:21:32;23.10;28.60
48515;DHT22;34309;47.260;2.796;2023-07-13T02:24:08;23.10;28.60
48515;DHT22;34309;47.260;2.796;2023-07-13T02:26:41;23.10;28.50
48515;DHT22;34309;47.260;2.796;2023-07-13T02:29:15;23.10;28.50
48515;DHT22;34309;47.260;2.796;2023-07-13T02:31:49;23.10;28.50
48515;DHT22;34309;47.260;2.796;2023-07-13T02:34:23;23.10;28.40
48515;DHT22;34309;47.260;2.796;2023-07-13T02:36:56;23.00;28.40
48515;DHT22;34309;47.260;2.796;2023-07-13T02:39:31;23.00;28.40
48515;DHT22;34309;47.260;2.796;2023-07-13T02:42:06;23.00;28.40
48515;DHT22;34309;47.260;2.796;2023-07-13T02:44:40;23.00;28.40
48515;DHT22;34309;47.260;2.796;2023-07-13T02:47:14;23.00;28.50
48515;DHT22;34309;47.260;2.796;2023-07-13T02:49:47;22.90;28.30
48515;DHT22;34309;47.260;2.796;2023-07-13T02:52:21;22.90;28.30
48515;DHT22;34309;47.260;2.796;2023-07-13T02:54:56;22.90;28.40
48515;DHT22;34309;47.260;2.796;2023-07-13T02:57:30;22.90;28.30
48515;DHT22;34309;47.260;2.796;2023-07-13T03:00:07;22.90;28.20
48515;DHT22;34309;47.260;2.796;2023-07-13T03:02:42;22.90;28.10
48515;DHT22;34309;47.260;2.796;2023-07-13T03:05:17;22.80;28.00
48515;DHT22;34309;47.260;2.796;2023-07-13T03:07:51;22.80;28.10
48515;DHT22;34309;47.260;2.796;2023-07-13T03:10:26;22.80;28.20
48515;DHT22;34309;47.260;2.796;2023-07-13T03:13:00;22.80;28.20
48515;DHT22;34309;47.260;2.796;2023-07-13T03:15:34;22.80;28.20
48515;DHT22;34309;47.260;2.796;2023-07-13T03:18:08;22.80;28.40
48515;DHT22;34309;47.260;2.796;2023-07-13T03:20:41;22.70;28.50
48515;DHT22;34309;47.260;2.796;2023-07-13T03:23:16;22.70;28.60
48515;DHT22;34309;47.260;2.796;2023-07-13T03:26:01;22.70;28.60
48515;DHT22;34309;47.260;2.796;2023-07-13T03:28:35;22.70;28.60
48515;DHT22;34309;47.260;2.796;2023-07-13T03:31:11;22.70;28.70
48515;DHT22;34309;47.260;2.796;2023-07-13T03:33:46;22.70;28.70
48515;DHT22;34309;47.260;2.796;2023-07-13T03:36:22;22.70;28.80
48515;DHT22;34309;47.260;2.796;2023-07-13T03:38:58;22.70;28.80
48515;DHT22;34309;47.260;2.796;2023-07-13T03:41:33;22.70;28.70
48515;DHT22;34309;47.260;2.796;2023-07-13T03:44:07;22.70;28.80
48515;DHT22;34309;47.260;2.796;2023-07-13T03:46:40;22.70;28.70
48515;DHT22;34309;47.260;2.796;2023-07-13T03:49:14;22.70;28.70
48515;DHT22;34309;47.260;2.796;2023-07-13T03:51:48;22.60;28.80
48515;DHT22;34309;47.260;2.796;2023-07-13T03:54:22;22.60;28.80
48515;DHT22;34309;47.260;2.796;2023-07-13T03:56:57;22.60;28.80
48515;DHT22;34309;47.260;2.796;2023-07-13T03:59:31;22.60;28.60
48515;DHT22;34309;47.260;2.796;2023-07-13T04:02:05;22.60;28.70
48515;DHT22;34309;47.260;2.796;2023-07-13T04:04:39;22.60;28.80
48515;DHT22;34309;47.260;2.796;2023-07-13T04:07:13;22.60;28.70
48515;DHT22;34309;47.260;2.796;2023-07-13T04:09:47;22.60;28.90
48515;DHT22;34309;47.260;2.796;2023-07-13T04:12:22;22.60;28.80
48515;DHT22;34309;47.260;2.796;2023-07-13T04:14:56;22.60;29.00
48515;DHT22;34309;47.260;2.796;2023-07-13T04:17:30;22.50;28.80
48515;DHT22;34309;47.260;2.796;2023-07-13T04:20:04;22.50;28.70
48515;DHT22;34309;47.260;2.796;2023-07-13T04:22:38;22.50;28.80
48515;DHT22;34309;47.260;2.796;2023-07-13T04:25:12;22.50;28.70
48515;DHT22;34309;47.260;2.796;2023-07-13T04:27:47;22.50;28.80
48515;DHT22;34309;47.260;2.796;2023-07-13T04:30:22;22.50;28.70
48515;DHT22;34309;47.260;2.796;2023-07-13T04:32:56;22.50;28.70
48515;DHT22;34309;47.260;2.796;2023-07-13T04:35:29;22.40;28.70
48515;DHT22;34309;47.260;2.796;2023-07-13T04:38:03;22.50;28.70
48515;DHT22;34309;47.260;2.796;2023-07-13T04:40:37;22.40;28.60
48515;DHT22;34309;47.260;2.796;2023-07-13T04:43:13;22.40;28.40
48515;DHT22;34309;47.260;2.796;2023-07-13T04:45:46;22.40;28.40
48515;DHT22;34309;47.260;2.796;2023-07-13T04:48:21;22.40;28.50
48515;DHT22;34309;47.260;2.796;2023-07-13T04:50:55;22.40;28.50
48515;DHT22;34309;47.260;2.796;2023-07-13T04:53:30;22.40;28.60
48515;DHT22;34309;47.260;2.796;2023-07-13T04:56:04;22.30;28.70
48515;DHT22;34309;47.260;2.796;2023-07-13T04:58:40;22.40;28.80
48515;DHT22;34309;47.260;2.796;2023-07-13T05:01:13;22.30;28.80
48515;DHT22;34309;47.260;2.796;2023-07-13T05:03:47;22.30;28.90
48515;DHT22;34309;47.260;2.796;2023-07-13T05:06:21;22.30;28.90
48515;DHT22;34309;47.260;2.796;2023-07-13T05:08:55;22.30;28.90
48515;DHT22;34309;47.260;2.796;2023-07-13T05:11:29;22.20;28.80
48515;DHT22;34309;47.260;2.796;2023-07-13T05:14:04;22.20;28.80
48515;DHT22;34309;47.260;2.796;2023-07-13T05:16:38;22.20;28.90
48515;DHT22;34309;47.260;2.796;2023-07-13T05:19:12;22.20;28.90
48515;DHT22;34309;47.260;2.796;2023-07-13T05:21:46;22.20;28.90
48515;DHT22;34309;47.260;2.796;2023-07-13T05:24:20;22.20;29.00
48515;DHT22;34309;47.260;2.796;2023-07-13T05:26:54;22.10;28.80
48515;DHT22;34309;47.260;2.796;2023-07-13T05:29:29;22.20;29.00
48515;DHT22;34309;47.260;2.796;2023-07-13T05:32:04;22.10;29.10
48515;DHT22;34309;47.260;2.796;2023-07-13T05:34:37;22.10;29.20
48515;DHT22;34309;47.260;2.796;2023-07-13T05:37:11;22.10;29.20
48515;DHT22;34309;47.260;2.796;2023-07-13T05:39:45;22.10;29.40
48515;DHT22;34309;47.260;2.796;2023-07-13T05:42:19;22.10;29.60
48515;DHT22;34309;47.260;2.796;2023-07-13T05:44:54;22.10;29.80
48515;DHT22;34309;47.260;2.796;2023-07-13T05:47:28;22.10;29.90
48515;DHT22;34309;47.260;2.796;2023-07-13T05:50:03;22.10;30.00
48515;DHT22;34309;47.260;2.796;2023-07-13T05:52:37;22.10;30.00
48515;DHT22;34309;47.260;2.796;2023-07-13T05:55:11;22.10;30.20
48515;DHT22;34309;47.260;2.796;2023-07-13T05:57:45;22.10;30.30
48515;DHT22;34309;47.260;2.796;2023-07-13T06:00:21;22.10;30.40
48515;DHT22;34309;47.260;2.796;2023-07-13T06:02:56;22.10;30.40
48515;DHT22;34309;47.260;2.796;2023-07-13T06:05:30;22.10;30.40
48515;DHT22;34309;47.260;2.796;2023-07-13T06:08:06;22.10;30.50
48515;DHT22;34309;47.260;2.796;2023-07-13T06:10:40;22.10;30.50
48515;DHT22;34309;47.260;2.796;2023-07-13T06:13:13;22.10;30.50
48515;DHT22;34309;47.260;2.796;2023-07-13T06:15:49;22.10;30.40
48515;DHT22;34309;47.260;2.796;2023-07-13T06:18:23;22.10;30.50
48515;DHT22;34309;47.260;2.796;2023-07-13T06:20:57;22.10;30.70
48515;DHT22;34309;47.260;2.796;2023-07-13T06:23:31;22.10;31.00
48515;DHT22;34309;47.260;2.796;2023-07-13T06:26:05;22.10;31.10
48515;DHT22;34309;47.260;2.796;2023-07-13T06:28:38;22.10;31.20
48515;DHT22;34309;47.260;2.796;2023-07-13T06:31:15;22.10;31.20
48515;DHT22;34309;47.260;2.796;2023-07-13T06:33:49;22.10;31.30
48515;DHT22;34309;47.260;2.796;2023-07-13T06:36:23;22.10;31.50
48515;DHT22;34309;47.260;2.796;2023-07-13T06:38:57;22.10;31.40
48515;DHT22;34309;47.260;2.796;2023-07-13T06:41:31;22.20;31.70
48515;DHT22;34309;47.260;2.796;2023-07-13T06:44:05;22.20;31.90
48515;DHT22;34309;47.260;2.796;2023-07-13T06:46:41;22.20;32.30
48515;DHT22;34309;47.260;2.796;2023-07-13T06:49:14;22.20;33.60
48515;DHT22;34309;47.260;2.796;2023-07-13T06:51:48;22.20;33.50
48515;DHT22;34309;47.260;2.796;2023-07-13T06:54:17;22.20;33.50
48515;DHT22;34309;47.260;2.796;2023-07-13T06:56:51;22.20;33.40
48515;DHT22;34309;47.260;2.796;2023-07-13T06:59:24;22.20;33.20
48515;DHT22;34309;47.260;2.796;2023-07-13T07:02:00;22.20;33.20
48515;DHT22;34309;47.260;2.796;2023-07-13T07:04:33;22.20;33.30
48515;DHT22;34309;47.260;2.796;2023-07-13T07:07:07;22.20;33.00
48515;DHT22;34309;47.260;2.796;2023-07-13T07:09:41;22.20;33.00
48515;DHT22;34309;47.260;2.796;2023-07-13T07:12:14;22.30;32.60
48515;DHT22;34309;47.260;2.796;2023-07-13T07:14:48;22.30;32.50
48515;DHT22;34309;47.260;2.796;2023-07-13T07:17:23;22.30;32.40
48515;DHT22;34309;47.260;2.796;2023-07-13T07:19:58;22.30;32.40
48515;DHT22;34309;47.260;2.796;2023-07-13T07:22:32;22.30;32.40
48515;DHT22;34309;47.260;2.796;2023-07-13T07:25:01;22.30;32.40
48515;DHT22;34309;47.260;2.796;2023-07-13T07:27:34;22.40;32.00
48515;DHT22;34309;47.260;2.796;2023-07-13T07:30:09;22.40;31.90
48515;DHT22;34309;47.260;2.796;2023-07-13T07:32:45;22.40;31.60
48515;DHT22;34309;47.260;2.796;2023-07-13T07:35:18;22.40;31.40
48515;DHT22;34309;47.260;2.796;2023-07-13T07:37:52;22.40;31.30
48515;DHT22;34309;47.260;2.796;2023-07-13T07:40:26;22.50;31.40
48515;DHT22;34309;47.260;2.796;2023-07-13T07:43:00;22.50;31.20
48515;DHT22;34309;47.260;2.796;2023-07-13T07:45:33;22.50;31.20
48515;DHT22;34309;47.260;2.796;2023-07-13T07:48:08;22.50;31.00
48515;DHT22;34309;47.260;2.796;2023-07-13T07:50:43;22.50;31.20
48515;DHT22;34309;47.260;2.796;2023-07-13T07:53:16;22.50;31.20
48515;DHT22;34309;47.260;2.796;2023-07-13T07:55:50;22.50;31.20
48515;DHT22;34309;47.260;2.796;2023-07-13T07:58:24;22.60;31.30
48515;DHT22;34309;47.260;2.796;2023-07-13T08:01:03;22.60;31.20
48515;DHT22;34309;47.260;2.796;2023-07-13T08:03:42;22.60;31.00
48515;DHT22;34309;47.260;2.796;2023-07-13T08:06:16;22.60;30.80
48515;DHT22;34309;47.260;2.796;2023-07-13T08:08:52;22.60;30.70
48515;DHT22;34309;47.260;2.796;2023-07-13T08:11:26;22.60;30.90
48515;DHT22;34309;47.260;2.796;2023-07-13T08:13:59;22.60;31.00
48515;DHT22;34309;47.260;2.796;2023-07-13T08:16:33;22.70;31.20
48515;DHT22;34309;47.260;2.796;2023-07-13T08:19:08;22.70;31.40
48515;DHT22;34309;47.260;2.796;2023-07-13T08:21:42;22.70;31.80
48515;DHT22;34309;47.260;2.796;2023-07-13T08:24:16;22.70;32.00
48515;DHT22;34309;47.260;2.796;2023-07-13T08:26:51;22.70;32.10
48515;DHT22;34309;47.260;2.796;2023-07-13T08:29:25;22.70;32.20
48515;DHT22;34309;47.260;2.796;2023-07-13T08:31:58;22.70;32.40
48515;DHT22;34309;47.260;2.796;2023-07-13T08:34:33;22.70;32.40
48515;DHT22;34309;47.260;2.796;2023-07-13T08:37:07;22.70;32.20
48515;DHT22;34309;47.260;2.796;2023-07-13T08:39:41;22.80;32.30
48515;DHT22;34309;47.260;2.796;2023-07-13T08:42:26;22.80;32.20
48515;DHT22;34309;47.260;2.796;2023-07-13T08:45:08;22.80;32.00
48515;DHT22;34309;47.260;2.796;2023-07-13T08:47:48;22.80;31.70
48515;DHT22;34309;47.260;2.796;2023-07-13T08:50:24;22.80;31.40
48515;DHT22;34309;47.260;2.796;2023-07-13T08:53:01;22.80;31.20
48515;DHT22;34309;47.260;2.796;2023-07-13T08:55:36;22.90;31.00
48515;DHT22;34309;47.260;2.796;2023-07-13T08:58:15;22.90;30.80
48515;DHT22;34309;47.260;2.796;2023-07-13T09:00:57;22.80;30.60
48515;DHT22;34309;47.260;2.796;2023-07-13T09:03:38;22.90;30.70
48515;DHT22;34309;47.260;2.796;2023-07-13T09:06:15;22.90;30.50
48515;DHT22;34309;47.260;2.796;2023-07-13T09:08:55;22.90;30.30
48515;DHT22;34309;47.260;2.796;2023-07-13T09:11:42;22.90;30.40
48515;DHT22;34309;47.260;2.796;2023-07-13T09:14:37;22.90;30.10
48515;DHT22;34309;47.260;2.796;2023-07-13T09:17:17;23.00;30.10
48515;DHT22;34309;47.260;2.796;2023-07-13T09:19:57;23.00;30.00
48515;DHT22;34309;47.260;2.796;2023-07-13T09:22:34;23.00;30.00
48515;DHT22;34309;47.260;2.796;2023-07-13T09:25:24;23.00;30.00
48515;DHT22;34309;47.260;2.796;2023-07-13T09:28:09;23.10;30.00
48515;DHT22;34309;47.260;2.796;2023-07-13T09:30:51;23.10;30.00
48515;DHT22;34309;47.260;2.796;2023-07-13T09:33:27;23.10;30.00
48515;DHT22;34309;47.260;2.796;2023-07-13T09:36:19;23.10;30.10
48515;DHT22;34309;47.260;2.796;2023-07-13T09:38:59;23.20;30.00
48515;DHT22;34309;47.260;2.796;2023-07-13T09:41:46;23.20;30.00
48515;DHT22;34309;47.260;2.796;2023-07-13T09:44:28;23.20;29.80
48515;DHT22;34309;47.260;2.796;2023-07-13T09:47:13;23.30;30.00
48515;DHT22;34309;47.260;2.796;2023-07-13T09:49:54;23.30;30.00
48515;DHT22;34309;47.260;2.796;2023-07-13T09:52:24;23.30;29.80
48515;DHT22;34309;47.260;2.796;2023-07-13T09:55:01;23.30;29.70
48515;DHT22;34309;47.260;2.796;2023-07-13T09:57:35;23.40;29.60
48515;DHT22;34309;47.260;2.796;2023-07-13T10:00:24;23.40;29.60
48515;DHT22;34309;47.260;2.796;2023-07-13T10:03:04;23.40;29.20
48515;DHT22;34309;47.260;2.796;2023-07-13T10:05:39;23.40;29.10
48515;DHT22;34309;47.260;2.796;2023-07-13T10:08:23;23.50;29.00
48515;DHT22;34309;47.260;2.796;2023-07-13T10:11:10;23.50;28.70
48515;DHT22;34309;47.260;2.796;2023-07-13T10:13:54;23.50;28.50
48515;DHT22;34309;47.260;2.796;2023-07-13T10:16:30;23.50;28.50
48515;DHT22;34309;47.260;2.796;2023-07-13T10:19:10;23.50;28.50
48515;DHT22;34309;47.260;2.796;2023-07-13T10:21:50;23.50;28.40
48515;DHT22;34309;47.260;2.796;2023-07-13T10:24:29;23.60;28.50
48515;DHT22;34309;47.260;2.796;2023-07-13T10:27:12;23.60;28.30
48515;DHT22;34309;47.260;2.796;2023-07-13T10:29:52;23.60;28.00
48515;DHT22;34309;47.260;2.796;2023-07-13T10:32:27;23.60;28.10
48515;DHT22;34309;47.260;2.796;2023-07-13T10:35:01;23.70;28.00
48515;DHT22;34309;47.260;2.796;2023-07-13T10:37:41;23.70;28.00
48515;DHT22;34309;47.260;2.796;2023-07-13T10:40:20;23.70;28.20
48515;DHT22;34309;47.260;2.796;2023-07-13T10:43:00;23.70;28.00
48515;DHT22;34309;47.260;2.796;2023-07-13T10:45:36;23.70;27.70
48515;DHT22;34309;47.260;2.796;2023-07-13T10:48:13;23.80;27.80
48515;DHT22;34309;47.260;2.796;2023-07-13T10:50:49;23.80;27.80
48515;DHT22;34309;47.260;2.796;2023-07-13T10:53:29;23.80;27.80
48515;DHT22;34309;47.260;2.796;2023-07-13T10:56:05;23.80;27.50
48515;DHT22;34309;47.260;2.796;2023-07-13T10:58:42;23.90;27.40
48515;DHT22;34309;47.260;2.796;2023-07-13T11:01:17;23.90;27.00
48515;DHT22;34309;47.260;2.796;2023-07-13T11:03:55;23.90;27.10
48515;DHT22;34309;47.260;2.796;2023-07-13T11:06:36;23.90;26.90
48515;DHT22;34309;47.260;2.796;2023-07-13T11:09:33;23.90;27.00
48515;DHT22;34309;47.260;2.796;2023-07-13T11:12:26;24.00;27.00
48515;DHT22;34309;47.260;2.796;2023-07-13T11:15:10;24.00;27.00
48515;DHT22;34309;47.260;2.796;2023-07-13T11:17:50;24.00;27.20
48515;DHT22;34309;47.260;2.796;2023-07-13T11:20:33;24.00;27.10
48515;DHT22;34309;47.260;2.796;2023-07-13T11:23:18;24.00;27.00
48515;DHT22;34309;47.260;2.796;2023-07-13T11:25:52;24.10;27.00
48515;DHT22;34309;47.260;2.796;2023-07-13T11:28:29;24.10;27.00
48515;DHT22;34309;47.260;2.796;2023-07-13T11:31:15;24.10;27.00
48515;DHT22;34309;47.260;2.796;2023-07-13T11:33:55;24.10;26.80
48515;DHT22;34309;47.260;2.796;2023-07-13T11:36:36;24.10;26.90
48515;DHT22;34309;47.260;2.796;2023-07-13T11:39:18;24.10;26.90
48515;DHT22;34309;47.260;2.796;2023-07-13T11:41:54;24.20;26.90
48515;DHT22;34309;47.260;2.796;2023-07-13T11:44:30;24.20;27.10
48515;DHT22;34309;47.260;2.796;2023-07-13T11:47:11;24.20;27.00
48515;DHT22;34309;47.260;2.796;2023-07-13T11:49:48;24.20;26.80
48515;DHT22;34309;47.260;2.796;2023-07-13T11:52:23;24.20;26.50
48515;DHT22;34309;47.260;2.796;2023-07-13T11:55:01;24.20;25.90
48515;DHT22;34309;47.260;2.796;2023-07-13T11:57:38;24.30;26.00
48515;DHT22;34309;47.260;2.796;2023-07-13T12:00:17;24.20;26.00
48515;DHT22;34309;47.260;2.796;2023-07-13T12:02:58;24.30;25.70
48515;DHT22;34309;47.260;2.796;2023-07-13T12:05:33;24.30;25.40
48515;DHT22;34309;47.260;2.796;2023-07-13T12:08:10;24.30;25.40
48515;DHT22;34309;47.260;2.796;2023-07-13T12:10:45;24.30;25.10
48515;DHT22;34309;47.260;2.796;2023-07-13T12:13:20;24.30;24.90
48515;DHT22;34309;47.260;2.796;2023-07-13T12:15:54;24.40;24.90
48515;DHT22;34309;47.260;2.796;2023-07-13T12:18:31;24.40;24.80
48515;DHT22;34309;47.260;2.796;2023-07-13T12:21:12;24.40;24.60
48515;DHT22;34309;47.260;2.796;2023-07-13T12:23:48;24.40;24.40
48515;DHT22;34309;47.260;2.796;2023-07-13T12:26:23;24.40;24.20
48515;DHT22;34309;47.260;2.796;2023-07-13T12:29:00;24.50;24.10
48515;DHT22;34309;47.260;2.796;2023-07-13T12:31:36;24.50;24.20
48515;DHT22;34309;47.260;2.796;2023-07-13T12:34:13;24.50;24.00
48515;DHT22;34309;47.260;2.796;2023-07-13T12:36:51;24.50;23.60
48515;DHT22;34309;47.260;2.796;2023-07-13T12:39:31;24.50;23.30
48515;DHT22;34309;47.260;2.796;2023-07-13T12:42:18;24.50;23.10
48515;DHT22;34309;47.260;2.796;2023-07-13T12:44:56;24.50;23.10
48515;DHT22;34309;47.260;2.796;2023-07-13T12:47:31;24.50;22.80
48515;DHT22;34309;47.260;2.796;2023-07-13T12:50:18;24.50;22.50
48515;DHT22;34309;47.260;2.796;2023-07-13T12:52:53;24.50;22.40
48515;DHT22;34309;47.260;2.796;2023-07-13T12:55:27;24.60;22.60
48515;DHT22;34309;47.260;2.796;2023-07-13T12:58:06;24.60;22.30
48515;DHT22;34309;47.260;2.796;2023-07-13T13:00:41;24.60;22.40
48515;DHT22;34309;47.260;2.796;2023-07-13T13:03:24;24.60;22.30
48515;DHT22;34309;47.260;2.796;2023-07-13T13:06:02;24.70;22.30
48515;DHT22;34309;47.260;2.796;2023-07-13T13:08:36;24.60;22.30
48515;DHT22;34309;47.260;2.796;2023-07-13T13:11:13;24.70;22.40
48515;DHT22;34309;47.260;2.796;2023-07-13T13:13:48;24.70;22.50
48515;DHT22;34309;47.260;2.796;2023-07-13T13:16:28;24.70;22.70
48515;DHT22;34309;47.260;2.796;2023-07-13T13:19:22;24.70;22.70
48515;DHT22;34309;47.260;2.796;2023-07-13T13:21:58;24.70;23.00
48515;DHT22;34309;47.260;2.796;2023-07-13T13:24:31;24.70;23.10
48515;DHT22;34309;47.260;2.796;2023-07-13T13:27:08;24.70;23.20
48515;DHT22;34309;47.260;2.796;2023-07-13T13:29:49;24.70;23.20
48515;DHT22;34309;47.260;2.796;2023-07-13T13:32:23;24.70;23.00
48515;DHT22;34309;47.260;2.796;2023-07-13T13:34:57;24.70;23.10
48515;DHT22;34309;47.260;2.796;2023-07-13T13:37:32;24.70;23.10
48515;DHT22;34309;47.260;2.796;2023-07-13T13:40:14;24.70;23.20
48515;DHT22;34309;47.260;2.796;2023-07-13T13:42:49;24.80;23.40
48515;DHT22;34309;47.260;2.796;2023-07-13T13:45:24;24.80;23.30
48515;DHT22;34309;47.260;2.796;2023-07-13T13:47:58;24.80;22.80
48515;DHT22;34309;47.260;2.796;2023-07-13T13:50:32;24.80;22.90
48515;DHT22;34309;47.260;2.796;2023-07-13T13:53:10;24.80;22.90
48515;DHT22;34309;47.260;2.796;2023-07-13T13:55:44;24.80;22.70
48515;DHT22;34309;47.260;2.796;2023-07-13T13:58:18;24.80;22.90
48515;DHT22;34309;47.260;2.796;2023-07-13T14:00:53;24.80;23.20
48515;DHT22;34309;47.260;2.796;2023-07-13T14:03:27;24.80;22.90
48515;DHT22;34309;47.260;2.796;2023-07-13T14:06:01;24.80;22.70
48515;DHT22;34309;47.260;2.796;2023-07-13T14:08:37;24.90;22.80
48515;DHT22;34309;47.260;2.796;2023-07-13T14:11:12;24.90;22.80
48515;DHT22;34309;47.260;2.796;2023-07-13T14:13:49;24.90;22.80
48515;DHT22;34309;47.260;2.796;2023-07-13T14:16:27;24.90;23.10
48515;DHT22;34309;47.260;2.796;2023-07-13T14:19:01;24.90;23.20
48515;DHT22;34309;47.260;2.796;2023-07-13T14:21:31;24.90;23.10
48515;DHT22;34309;47.260;2.796;2023-07-13T14:24:06;24.80;23.00
48515;DHT22;34309;47.260;2.796;2023-07-13T14:26:41;24.90;22.90
48515;DHT22;34309;47.260;2.796;2023-07-13T14:29:16;24.90;23.00
48515;DHT22;34309;47.260;2.796;2023-07-13T14:31:51;24.90;23.10
48515;DHT22;34309;47.260;2.796;2023-07-13T14:34:24;24.90;23.00
48515;DHT22;34309;47.260;2.796;2023-07-13T14:36:58;24.90;23.30
48515;DHT22;34309;47.260;2.796;2023-07-13T14:39:33;24.90;22.80
48515;DHT22;34309;47.260;2.796;2023-07-13T14:42:09;24.90;23.00
48515;DHT22;34309;47.260;2.796;2023-07-13T14:44:43;24.90;22.80
48515;DHT22;34309;47.260;2.796;2023-07-13T14:47:18;24.90;22.50
48515;DHT22;34309;47.260;2.796;2023-07-13T14:49:52;25.00;22.40
48515;DHT22;34309;47.260;2.796;2023-07-13T14:52:26;25.00;22.40
48515;DHT22;34309;47.260;2.796;2023-07-13T14:55:01;25.00;22.40
48515;DHT22;34309;47.260;2.796;2023-07-13T14:57:35;25.00;22.30
48515;DHT22;34309;47.260;2.796;2023-07-13T15:00:15;25.00;22.50
48515;DHT22;34309;47.260;2.796;2023-07-13T15:02:51;25.00;22.60
48515;DHT22;34309;47.260;2.796;2023-07-13T15:05:28;25.00;22.70
48515;DHT22;34309;47.260;2.796;2023-07-13T15:08:03;25.00;22.70
48515;DHT22;34309;47.260;2.796;2023-07-13T15:10:39;25.00;22.50
48515;DHT22;34309;47.260;2.796;2023-07-13T15:13:15;25.10;22.60
48515;DHT22;34309;47.260;2.796;2023-07-13T15:15:51;25.10;22.60
48515;DHT22;34309;47.260;2.796;2023-07-13T15:18:26;25.10;22.50
48515;DHT22;34309;47.260;2.796;2023-07-13T15:21:00;25.10;22.50
48515;DHT22;34309;47.260;2.796;2023-07-13T15:23:36;25.10;22.50
48515;DHT22;34309;47.260;2.796;2023-07-13T15:26:14;25.10;22.50
48515;DHT22;34309;47.260;2.796;2023-07-13T15:28:48;25.10;22.20
48515;DHT22;34309;47.260;2.796;2023-07-13T15:31:23;25.10;22.30
48515;DHT22;34309;47.260;2.796;2023-07-13T15:33:58;25.10;22.10
48515;DHT22;34309;47.260;2.796;2023-07-13T15:36:32;25.10;21.90
48515;DHT22;34309;47.260;2.796;2023-07-13T15:39:07;25.10;22.10
48515;DHT22;34309;47.260;2.796;2023-07-13T15:41:45;25.10;21.90
48515;DHT22;34309;47.260;2.796;2023-07-13T15:44:26;25.20;22.20
48515;DHT22;34309;47.260;2.796;2023-07-13T15:47:01;25.10;22.30
48515;DHT22;34309;47.260;2.796;2023-07-13T15:49:35;25.10;22.30
48515;DHT22;34309;47.260;2.796;2023-07-13T15:52:16;25.20;22.30
48515;DHT22;34309;47.260;2.796;2023-07-13T15:55:01;25.10;22.10
48515;DHT22;34309;47.260;2.796;2023-07-13T15:57:36;25.20;22.10
48515;DHT22;34309;47.260;2.796;2023-07-13T16:00:16;25.20;22.20
48515;DHT22;34309;47.260;2.796;2023-07-13T16:02:53;25.20;22.20
48515;DHT22;34309;47.260;2.796;2023-07-13T16:05:27;25.20;22.20
48515;DHT22;34309;47.260;2.796;2023-07-13T16:07:56;25.20;22.30
48515;DHT22;34309;47.260;2.796;2023-07-13T16:10:33;25.20;22.30
48515;DHT22;34309;47.260;2.796;2023-07-13T16:13:14;25.20;22.40
48515;DHT22;34309;47.260;2.796;2023-07-13T16:15:49;25.30;22.60
48515;DHT22;34309;47.260;2.796;2023-07-13T16:18:22;25.30;22.50
48515;DHT22;34309;47.260;2.796;2023-07-13T16:20:56;25.30;22.40
48515;DHT22;34309;47.260;2.796;2023-07-13T16:23:35;25.30;22.50
48515;DHT22;34309;47.260;2.796;2023-07-13T16:26:29;25.30;22.50
48515;DHT22;34309;47.260;2.796;2023-07-13T16:29:15;25.30;22.60